sensor_id;sensor_type;location;lat;lon;timestamp;pressure;altitude;pressure_sealevel;temperature;humidity
5413;BME280;2729;50.056;8.678;2023-04-22T00:01:54;99650.94;;;13.55;100.00
5413;BME280;2729;50.056;8.678;2023-04-22T00:04:20;99655.25;;;13.56;100.00
5413;BME280;2729;50.056;8.678;2023-04-22T00:06:46;99651.09;;;13.52;100.00
5413;BME280;2729;50.056;8.678;2023-04-22T00:09:12;99654.97;;;13.43;100.00
5413;BME280;2729;50.056;8.678;2023-04-22T00:11:38;99649.81;;;13.42;100.00
5413;BME280;2729;50.056;8.678;2023-04-22T00:14:04;99645.00;;;13.33;100.00
5413;BME280;2729;50.056;8.678;2023-04-22T00:16:31;99649.03;;;13.40;100.00
5413;BME280;2729;50.056;8.678;2023-04-22T00:18:57;99652.78;;;13.34;100.00
5413;BME280;2729;50.056;8.678;2023-04-22T00:21:23;99646.84;;;13.31;100.00
5413;BME280;2729;50.056;8.678;2023-04-22T00:23:49;99653.72;;;13.33;100.00
5413;BME280;2729;50.056;8.678;2023-04-22T00:26:15;99647.81;;;13.28;100.00
5413;BME280;2729;50.056;8.678;2023-04-22T00:28:40;99649.47;;;13.31;100.00
5413;BME280;2729;50.056;8.678;2023-04-22T00:31:06;99644.28;;;13.29;100.00
5413;BME280;2729;50.056;8.678;2023-04-22T00:33:32;99644.94;;;13.34;100.00
5413;BME280;2729;50.056;8.678;2023-04-22T00:35:58;99643.41;;;13.10;100.00
5413;BME280;2729;50.056;8.678;2023-04-22T00:38:24;99646.41;;;13.21;100.00
5413;BME280;2729;50.056;8.678;2023-04-22T00:40:51;99642.72;;;13.25;100.00
5413;BME280;2729;50.056;8.678;2023-04-22T00:43:17;99636.66;;;13.04;100.00
5413;BME280;2729;50.056;8.678;2023-04-22T00:45:45;99640.13;;;13.05;100.00
5413;BME280;2729;50.056;8.678;2023-04-22T00:48:12;99648.19;;;13.21;100.00
5413;BME280;2729;50.056;8.678;2023-04-22T00:50:38;99643.31;;;13.11;100.00
5413;BME280;2729;50.056;8.678;2023-04-22T00:53:04;99646.09;;;13.08;100.00
5413;BME280;2729;50.056;8.678;2023-04-22T00:55:30;99645.22;;;13.08;100.00
5413;BME280;2729;50.056;8.678;2023-04-22T00:57:57;99641.19;;;13.01;100.00
5413;BME280;2729;50.056;8.678;2023-04-22T01:00:25;99639.72;;;13.14;100.00
5413;BME280;2729;50.056;8.678;2023-04-22T01:02:53;99635.75;;;13.05;100.00
5413;BME280;2729;50.056;8.678;2023-04-22T01:05:19;99640.69;;;13.11;100.00
5413;BME280;2729;50.056;8.678;2023-04-22T01:07:45;99637.31;;;13.09;100.00
5413;BME280;2729;50.056;8.678;2023-04-22T01:10:11;99632.78;;;13.13;100.00
5413;BME280;2729;50.056;8.678;2023-04-22T01:12:37;99633.25;;;13.02;100.00
5413;BME280;2729;50.056;8.678;2023-04-22T01:15:03;99626.72;;;12.92;100.00
5413;BME280;2729;50.056;8.678;2023-04-22T01:17:30;99626.44;;;12.98;100.00
5413;BME280;2729;50.056;8.678;2023-04-22T01:19:59;99618.56;;;12.98;100.00
5413;BME280;2729;50.056;8.678;2023-04-22T01:22:25;99625.41;;;13.02;100.00
5413;BME280;2729;50.056;8.678;2023-04-22T01:24:54;99625.91;;;13.10;100.00
5413;BME280;2729;50.056;8.678;2023-04-22T01:27:21;99620.59;;;13.12;100.00
5413;BME280;2729;50.056;8.678;2023-04-22T01:29:47;99630.16;;;13.13;100.00
5413;BME280;2729;50.056;8.678;2023-04-22T01:32:13;99630.75;;;13.19;100.00
5413;BME280;2729;50.056;8.678;2023-04-22T01:34:39;99621.44;;;13.12;100.00
5413;BME280;2729;50.056;8.678;2023-04-22T01:37:06;99621.09;;;13.01;100.00
5413;BME280;2729;50.056;8.678;2023-04-22T01:39:32;99625.47;;;13.01;100.00
5413;BME280;2729;50.056;8.678;2023-04-22T01:41:58;99629.78;;;13.02;100.00
5413;BME280;2729;50.056;8.678;2023-04-22T01:44:24;99625.34;;;12.83;100.00
5413;BME280;2729;50.056;8.678;2023-04-22T01:46:50;99620.06;;;12.65;100.00
5413;BME280;2729;50.056;8.678;2023-04-22T01:49:16;99617.19;;;12.71;100.00
5413;BME280;2729;50.056;8.678;2023-04-22T01:51:42;99621.88;;;12.83;100.00
5413;BME280;2729;50.056;8.678;2023-04-22T01:54:08;99620.19;;;12.82;100.00
5413;BME280;2729;50.056;8.678;2023-04-22T01:56:36;99615.78;;;12.82;100.00
5413;BME280;2729;50.056;8.678;2023-04-22T01:59:03;99626.13;;;12.85;100.00
5413;BME280;2729;50.056;8.678;2023-04-22T02:01:33;99634.28;;;12.98;100.00
5413;BME280;2729;50.056;8.678;2023-04-22T02:03:59;99632.06;;;12.89;100.00
5413;BME280;2729;50.056;8.678;2023-04-22T02:06:25;99640.63;;;12.74;100.00
5413;BME280;2729;50.056;8.678;2023-04-22T02:08:52;99627.88;;;12.66;100.00
5413;BME280;2729;50.056;8.678;2023-04-22T02:11:18;99629.69;;;12.64;100.00
5413;BME280;2729;50.056;8.678;2023-04-22T02:13:44;99632.50;;;12.80;100.00
5413;BME280;2729;50.056;8.678;2023-04-22T02:16:10;99634.59;;;12.72;100.00
5413;BME280;2729;50.056;8.678;2023-04-22T02:18:36;99638.97;;;12.71;100.00
5413;BME280;2729;50.056;8.678;2023-04-22T02:21:02;99623.66;;;12.82;100.00
5413;BME280;2729;50.056;8.678;2023-04-22T02:23:28;99626.59;;;12.75;100.00
5413;BME280;2729;50.056;8.678;2023-04-22T02:25:54;99629.50;;;12.69;100.00
5413;BME280;2729;50.056;8.678;2023-04-22T02:28:20;99628.94;;;12.81;100.00
5413;BME280;2729;50.056;8.678;2023-04-22T02:30:47;99634.06;;;12.84;100.00
5413;BME280;2729;50.056;8.678;2023-04-22T02:33:13;99642.56;;;12.89;100.00
5413;BME280;2729;50.056;8.678;2023-04-22T02:35:39;99642.03;;;12.81;100.00
5413;BME280;2729;50.056;8.678;2023-04-22T02:38:05;99645.72;;;12.77;100.00
5413;BME280;2729;50.056;8.678;2023-04-22T02:40:31;99650.50;;;12.67;100.00
5413;BME280;2729;50.056;8.678;2023-04-22T02:42:57;99649.00;;;12.62;100.00
5413;BME280;2729;50.056;8.678;2023-04-22T02:45:23;99645.34;;;12.66;100.00
5413;BME280;2729;50.056;8.678;2023-04-22T02:48:01;99644.16;;;12.73;100.00
5413;BME280;2729;50.056;8.678;2023-04-22T02:50:27;99637.47;;;12.66;100.00
5413;BME280;2729;50.056;8.678;2023-04-22T02:52:53;99639.13;;;12.68;100.00
5413;BME280;2729;50.056;8.678;2023-04-22T02:55:19;99634.16;;;12.62;100.00
5413;BME280;2729;50.056;8.678;2023-04-22T02:57:45;99633.28;;;12.62;100.00
5413;BME280;2729;50.056;8.678;2023-04-22T03:00:11;99623.81;;;12.59;100.00
5413;BME280;2729;50.056;8.678;2023-04-22T03:02:37;99625.50;;;12.60;100.00
5413;BME280;2729;50.056;8.678;2023-04-22T03:05:13;99622.75;;;12.63;100.00
5413;BME280;2729;50.056;8.678;2023-04-22T03:07:39;99630.22;;;12.32;100.00
5413;BME280;2729;50.056;8.678;2023-04-22T03:10:06;99634.88;;;12.45;100.00
5413;BME280;2729;50.056;8.678;2023-04-22T03:12:33;99631.47;;;12.64;100.00
5413;BME280;2729;50.056;8.678;2023-04-22T03:14:59;99627.16;;;12.63;100.00
5413;BME280;2729;50.056;8.678;2023-04-22T03:17:28;99637.22;;;12.51;100.00
5413;BME280;2729;50.056;8.678;2023-04-22T03:19:55;99630.75;;;12.60;100.00
5413;BME280;2729;50.056;8.678;2023-04-22T03:22:21;99631.53;;;12.62;100.00
5413;BME280;2729;50.056;8.678;2023-04-22T03:24:47;99641.72;;;12.68;100.00
5413;BME280;2729;50.056;8.678;2023-04-22T03:27:14;99641.94;;;12.64;100.00
5413;BME280;2729;50.056;8.678;2023-04-22T03:29:39;99632.97;;;12.49;100.00
5413;BME280;2729;50.056;8.678;2023-04-22T03:32:05;99638.00;;;12.53;100.00
5413;BME280;2729;50.056;8.678;2023-04-22T03:34:33;99636.00;;;12.40;100.00
5413;BME280;2729;50.056;8.678;2023-04-22T03:36:59;99635.13;;;12.39;100.00
5413;BME280;2729;50.056;8.678;2023-04-22T03:39:25;99635.66;;;12.47;100.00
5413;BME280;2729;50.056;8.678;2023-04-22T03:41:51;99635.59;;;12.49;100.00
5413;BME280;2729;50.056;8.678;2023-04-22T03:44:17;99635.34;;;12.35;100.00
5413;BME280;2729;50.056;8.678;2023-04-22T03:46:44;99632.66;;;12.56;100.00
5413;BME280;2729;50.056;8.678;2023-04-22T03:49:23;99638.53;;;12.62;100.00
5413;BME280;2729;50.056;8.678;2023-04-22T03:51:49;99635.19;;;12.58;100.00
5413;BME280;2729;50.056;8.678;2023-04-22T03:54:18;99637.03;;;12.56;100.00
5413;BME280;2729;50.056;8.678;2023-04-22T03:56:48;99637.56;;;12.44;100.00
5413;BME280;2729;50.056;8.678;2023-04-22T03:59:14;99636.44;;;12.49;100.00
5413;BME280;2729;50.056;8.678;2023-04-22T04:01:40;99633.75;;;12.51;100.00
5413;BME280;2729;50.056;8.678;2023-04-22T04:04:08;99639.72;;;12.54;100.00
5413;BME280;2729;50.056;8.678;2023-04-22T04:06:40;99635.59;;;12.49;100.00
5413;BME280;2729;50.056;8.678;2023-04-22T04:09:06;99634.41;;;12.56;100.00
5413;BME280;2729;50.056;8.678;2023-04-22T04:11:33;99634.63;;;12.51;100.00
5413;BME280;2729;50.056;8.678;2023-04-22T04:13:59;99635.94;;;12.41;100.00
5413;BME280;2729;50.056;8.678;2023-04-22T04:16:30;99628.34;;;12.35;100.00
5413;BME280;2729;50.056;8.678;2023-04-22T04:19:04;99624.84;;;12.14;100.00
5413;BME280;2729;50.056;8.678;2023-04-22T04:21:33;99622.31;;;12.13;100.00
5413;BME280;2729;50.056;8.678;2023-04-22T04:24:00;99628.16;;;11.98;100.00
5413;BME280;2729;50.056;8.678;2023-04-22T04:26:29;99623.78;;;11.98;100.00
5413;BME280;2729;50.056;8.678;2023-04-22T04:29:03;99630.78;;;11.98;100.00
5413;BME280;2729;50.056;8.678;2023-04-22T04:31:30;99623.72;;;12.00;100.00
5413;BME280;2729;50.056;8.678;2023-04-22T04:33:58;99618.25;;;12.06;100.00
5413;BME280;2729;50.056;8.678;2023-04-22T04:36:25;99615.63;;;12.06;100.00
5413;BME280;2729;50.056;8.678;2023-04-22T04:38:54;99603.66;;;12.00;100.00
5413;BME280;2729;50.056;8.678;2023-04-22T04:41:20;99601.97;;;11.99;100.00
5413;BME280;2729;50.056;8.678;2023-04-22T04:43:47;99605.75;;;12.12;100.00
5413;BME280;2729;50.056;8.678;2023-04-22T04:46:23;99606.00;;;12.06;100.00
5413;BME280;2729;50.056;8.678;2023-04-22T04:48:48;99605.16;;;12.06;100.00
5413;BME280;2729;50.056;8.678;2023-04-22T04:51:16;99605.53;;;11.97;100.00
5413;BME280;2729;50.056;8.678;2023-04-22T04:53:49;99615.28;;;11.93;100.00
5413;BME280;2729;50.056;8.678;2023-04-22T04:56:15;99623.69;;;11.79;100.00
5413;BME280;2729;50.056;8.678;2023-04-22T04:58:41;99628.41;;;11.70;100.00
5413;BME280;2729;50.056;8.678;2023-04-22T05:01:23;99621.34;;;11.72;100.00
5413;BME280;2729;50.056;8.678;2023-04-22T05:03:50;99626.72;;;11.90;100.00
5413;BME280;2729;50.056;8.678;2023-04-22T05:06:18;99623.06;;;11.95;100.00
5413;BME280;2729;50.056;8.678;2023-04-22T05:08:48;99609.69;;;12.02;100.00
5413;BME280;2729;50.056;8.678;2023-04-22T05:11:14;99607.72;;;12.07;100.00
5413;BME280;2729;50.056;8.678;2023-04-22T05:13:43;99611.31;;;12.05;100.00
5413;BME280;2729;50.056;8.678;2023-04-22T05:16:15;99616.47;;;12.06;100.00
5413;BME280;2729;50.056;8.678;2023-04-22T05:18:41;99614.41;;;12.14;100.00
5413;BME280;2729;50.056;8.678;2023-04-22T05:21:09;99615.56;;;12.07;100.00
5413;BME280;2729;50.056;8.678;2023-04-22T05:23:35;99607.91;;;12.03;100.00
5413;BME280;2729;50.056;8.678;2023-04-22T05:26:04;99615.63;;;12.06;100.00
5413;BME280;2729;50.056;8.678;2023-04-22T05:28:30;99609.16;;;12.14;100.00
5413;BME280;2729;50.056;8.678;2023-04-22T05:30:56;99615.91;;;12.20;100.00
5413;BME280;2729;50.056;8.678;2023-04-22T05:33:25;99615.91;;;12.20;100.00
5413;BME280;2729;50.056;8.678;2023-04-22T05:35:51;99616.81;;;12.19;100.00
5413;BME280;2729;50.056;8.678;2023-04-22T05:38:18;99626.38;;;12.20;100.00
5413;BME280;2729;50.056;8.678;2023-04-22T05:40:44;99630.28;;;12.10;100.00
5413;BME280;2729;50.056;8.678;2023-04-22T05:43:13;99633.34;;;11.99;100.00
5413;BME280;2729;50.056;8.678;2023-04-22T05:45:41;99638.56;;;11.99;100.00
5413;BME280;2729;50.056;8.678;2023-04-22T05:48:10;99638.25;;;12.07;100.00
5413;BME280;2729;50.056;8.678;2023-04-22T05:50:41;99637.63;;;12.22;100.00
5413;BME280;2729;50.056;8.678;2023-04-22T05:53:07;99635.41;;;12.33;100.00
5413;BME280;2729;50.056;8.678;2023-04-22T05:55:33;99633.38;;;12.40;100.00
5413;BME280;2729;50.056;8.678;2023-04-22T05:58:00;99635.84;;;12.43;100.00
5413;BME280;2729;50.056;8.678;2023-04-22T06:00:43;99632.13;;;12.48;100.00
5413;BME280;2729;50.056;8.678;2023-04-22T06:03:22;99642.47;;;12.51;100.00
5413;BME280;2729;50.056;8.678;2023-04-22T06:05:48;99642.84;;;12.63;100.00
5413;BME280;2729;50.056;8.678;2023-04-22T06:08:14;99648.09;;;12.63;100.00
5413;BME280;2729;50.056;8.678;2023-04-22T06:10:39;99633.03;;;12.68;100.00
5413;BME280;2729;50.056;8.678;2023-04-22T06:13:05;99627.53;;;12.74;100.00
5413;BME280;2729;50.056;8.678;2023-04-22T06:15:33;99628.88;;;12.82;100.00
5413;BME280;2729;50.056;8.678;2023-04-22T06:17:59;99631.28;;;12.87;100.00
5413;BME280;2729;50.056;8.678;2023-04-22T06:20:25;99636.47;;;12.88;100.00
5413;BME280;2729;50.056;8.678;2023-04-22T06:22:51;99646.75;;;12.93;100.00
5413;BME280;2729;50.056;8.678;2023-04-22T06:25:17;99643.34;;;12.91;100.00
5413;BME280;2729;50.056;8.678;2023-04-22T06:27:43;99639.53;;;12.98;100.00
5413;BME280;2729;50.056;8.678;2023-04-22T06:30:10;99635.22;;;12.97;100.00
5413;BME280;2729;50.056;8.678;2023-04-22T06:32:37;99644.53;;;13.04;100.00
5413;BME280;2729;50.056;8.678;2023-04-22T06:35:03;99635.47;;;13.11;100.00
5413;BME280;2729;50.056;8.678;2023-04-22T06:37:29;99640.47;;;13.17;100.00
5413;BME280;2729;50.056;8.678;2023-04-22T06:39:55;99647.47;;;13.36;100.00
5413;BME280;2729;50.056;8.678;2023-04-22T06:42:43;99651.09;;;13.52;100.00
5413;BME280;2729;50.056;8.678;2023-04-22T06:45:19;99639.22;;;13.62;100.00
5413;BME280;2729;50.056;8.678;2023-04-22T06:48:11;99639.19;;;13.81;100.00
5413;BME280;2729;50.056;8.678;2023-04-22T06:50:55;99636.84;;;13.94;100.00
5413;BME280;2729;50.056;8.678;2023-04-22T06:53:22;99635.69;;;13.99;100.00
5413;BME280;2729;50.056;8.678;2023-04-22T06:55:48;99623.97;;;14.06;100.00
5413;BME280;2729;50.056;8.678;2023-04-22T06:58:15;99624.50;;;14.13;100.00
5413;BME280;2729;50.056;8.678;2023-04-22T07:00:41;99631.59;;;14.28;100.00
5413;BME280;2729;50.056;8.678;2023-04-22T07:03:08;99628.75;;;14.33;100.00
5413;BME280;2729;50.056;8.678;2023-04-22T07:05:34;99625.53;;;14.45;100.00
5413;BME280;2729;50.056;8.678;2023-04-22T07:08:01;99626.22;;;14.48;100.00
5413;BME280;2729;50.056;8.678;2023-04-22T07:10:27;99629.94;;;14.44;100.00
5413;BME280;2729;50.056;8.678;2023-04-22T07:13:11;99632.63;;;14.60;100.00
5413;BME280;2729;50.056;8.678;2023-04-22T07:15:37;99642.50;;;14.72;100.00
5413;BME280;2729;50.056;8.678;2023-04-22T07:18:03;99630.91;;;14.76;100.00
5413;BME280;2729;50.056;8.678;2023-04-22T07:20:29;99637.16;;;14.74;100.00
5413;BME280;2729;50.056;8.678;2023-04-22T07:22:55;99629.31;;;14.90;100.00
5413;BME280;2729;50.056;8.678;2023-04-22T07:25:22;99631.47;;;14.99;100.00
5413;BME280;2729;50.056;8.678;2023-04-22T07:27:48;99630.59;;;14.98;100.00
5413;BME280;2729;50.056;8.678;2023-04-22T07:30:14;99614.09;;;15.12;100.00
5413;BME280;2729;50.056;8.678;2023-04-22T07:32:40;99618.59;;;15.26;100.00
5413;BME280;2729;50.056;8.678;2023-04-22T07:35:07;99614.97;;;15.44;100.00
5413;BME280;2729;50.056;8.678;2023-04-22T07:37:33;99609.53;;;15.47;100.00
5413;BME280;2729;50.056;8.678;2023-04-22T07:39:59;99615.81;;;15.44;100.00
5413;BME280;2729;50.056;8.678;2023-04-22T07:42:25;99615.13;;;15.57;100.00
5413;BME280;2729;50.056;8.678;2023-04-22T07:44:51;99607.19;;;15.74;100.00
5413;BME280;2729;50.056;8.678;2023-04-22T07:47:16;99611.91;;;15.99;100.00
5413;BME280;2729;50.056;8.678;2023-04-22T07:49:42;99604.72;;;16.17;100.00
5413;BME280;2729;50.056;8.678;2023-04-22T07:52:10;99606.16;;;16.22;100.00
5413;BME280;2729;50.056;8.678;2023-04-22T07:54:36;99610.88;;;16.31;100.00
5413;BME280;2729;50.056;8.678;2023-04-22T07:57:02;99607.69;;;16.40;100.00
5413;BME280;2729;50.056;8.678;2023-04-22T07:59:27;99605.16;;;16.39;100.00
5413;BME280;2729;50.056;8.678;2023-04-22T08:01:53;99601.63;;;16.24;100.00
5413;BME280;2729;50.056;8.678;2023-04-22T08:04:22;99592.00;;;16.53;100.00
5413;BME280;2729;50.056;8.678;2023-04-22T08:06:48;99597.66;;;16.61;100.00
5413;BME280;2729;50.056;8.678;2023-04-22T08:09:14;99597.41;;;16.80;100.00
5413;BME280;2729;50.056;8.678;2023-04-22T08:11:40;99594.69;;;16.82;100.00
5413;BME280;2729;50.056;8.678;2023-04-22T08:14:06;99599.38;;;16.77;100.00
5413;BME280;2729;50.056;8.678;2023-04-22T08:16:32;99595.25;;;16.87;100.00
5413;BME280;2729;50.056;8.678;2023-04-22T08:18:58;99591.84;;;16.85;100.00
5413;BME280;2729;50.056;8.678;2023-04-22T08:21:24;99593.72;;;17.11;100.00
5413;BME280;2729;50.056;8.678;2023-04-22T08:23:52;99596.50;;;17.36;100.00
5413;BME280;2729;50.056;8.678;2023-04-22T08:26:19;99592.91;;;17.38;100.00
5413;BME280;2729;50.056;8.678;2023-04-22T08:28:46;99589.78;;;17.45;100.00
5413;BME280;2729;50.056;8.678;2023-04-22T08:31:12;99591.97;;;17.65;100.00
5413;BME280;2729;50.056;8.678;2023-04-22T08:33:39;99588.13;;;17.71;99.20
5413;BME280;2729;50.056;8.678;2023-04-22T08:36:05;99586.47;;;17.83;100.00
5413;BME280;2729;50.056;8.678;2023-04-22T08:38:31;99583.09;;;17.81;96.69
5413;BME280;2729;50.056;8.678;2023-04-22T08:40:57;99580.19;;;17.98;94.26
5413;BME280;2729;50.056;8.678;2023-04-22T08:43:24;99582.75;;;18.12;98.37
5413;BME280;2729;50.056;8.678;2023-04-22T08:45:51;99585.13;;;18.29;96.09
5413;BME280;2729;50.056;8.678;2023-04-22T08:48:18;99585.13;;;18.29;92.50
5413;BME280;2729;50.056;8.678;2023-04-22T08:50:46;99586.97;;;18.15;96.51
5413;BME280;2729;50.056;8.678;2023-04-22T08:53:13;99586.19;;;18.40;92.45
5413;BME280;2729;50.056;8.678;2023-04-22T08:55:42;99576.28;;;18.56;91.11
5413;BME280;2729;50.056;8.678;2023-04-22T08:58:09;99578.84;;;18.70;91.57
5413;BME280;2729;50.056;8.678;2023-04-22T09:00:35;99579.69;;;18.71;89.04
5413;BME280;2729;50.056;8.678;2023-04-22T09:03:02;99579.97;;;18.91;89.59
5413;BME280;2729;50.056;8.678;2023-04-22T09:05:32;99569.50;;;18.90;86.53
5413;BME280;2729;50.056;8.678;2023-04-22T09:07:58;99572.47;;;18.98;86.58
5413;BME280;2729;50.056;8.678;2023-04-22T09:10:24;99566.03;;;19.26;84.36
5413;BME280;2729;50.056;8.678;2023-04-22T09:12:50;99559.53;;;19.43;85.95
5413;BME280;2729;50.056;8.678;2023-04-22T09:15:17;99563.16;;;19.29;84.78
5413;BME280;2729;50.056;8.678;2023-04-22T09:17:42;99564.19;;;19.52;84.78
5413;BME280;2729;50.056;8.678;2023-04-22T09:20:09;99571.28;;;19.39;82.46
5413;BME280;2729;50.056;8.678;2023-04-22T09:22:42;99565.13;;;19.75;77.07
5413;BME280;2729;50.056;8.678;2023-04-22T09:25:17;99559.34;;;19.70;74.47
5413;BME280;2729;50.056;8.678;2023-04-22T09:27:54;99566.63;;;19.90;74.63
5413;BME280;2729;50.056;8.678;2023-04-22T09:30:28;99564.38;;;19.97;74.94
5413;BME280;2729;50.056;8.678;2023-04-22T09:32:56;99573.28;;;19.96;79.24
5413;BME280;2729;50.056;8.678;2023-04-22T09:35:26;99570.13;;;19.90;78.91
5413;BME280;2729;50.056;8.678;2023-04-22T09:37:52;99566.34;;;20.06;81.01
5413;BME280;2729;50.056;8.678;2023-04-22T09:40:18;99566.41;;;19.93;77.97
5413;BME280;2729;50.056;8.678;2023-04-22T09:42:55;99568.16;;;19.81;80.84
5413;BME280;2729;50.056;8.678;2023-04-22T09:45:32;99565.09;;;19.99;77.58
5413;BME280;2729;50.056;8.678;2023-04-22T09:48:01;99565.59;;;20.39;79.40
5413;BME280;2729;50.056;8.678;2023-04-22T09:50:27;99562.00;;;20.40;79.94
5413;BME280;2729;50.056;8.678;2023-04-22T09:53:05;99559.81;;;20.45;76.53
5413;BME280;2729;50.056;8.678;2023-04-22T09:55:33;99557.44;;;20.64;74.56
5413;BME280;2729;50.056;8.678;2023-04-22T09:58:06;99555.50;;;20.77;75.26
5413;BME280;2729;50.056;8.678;2023-04-22T10:00:34;99552.72;;;20.45;73.96
5413;BME280;2729;50.056;8.678;2023-04-22T10:03:04;99552.84;;;20.66;72.04
5413;BME280;2729;50.056;8.678;2023-04-22T10:05:30;99551.53;;;20.61;74.29
5413;BME280;2729;50.056;8.678;2023-04-22T10:07:56;99543.59;;;20.94;74.96
5413;BME280;2729;50.056;8.678;2023-04-22T10:10:22;99543.47;;;20.96;72.11
5413;BME280;2729;50.056;8.678;2023-04-22T10:12:49;99545.28;;;21.06;71.75
5413;BME280;2729;50.056;8.678;2023-04-22T10:15:14;99542.13;;;20.68;71.64
5413;BME280;2729;50.056;8.678;2023-04-22T10:17:41;99531.66;;;20.77;73.89
5413;BME280;2729;50.056;8.678;2023-04-22T10:20:15;99535.19;;;20.32;72.21
5413;BME280;2729;50.056;8.678;2023-04-22T10:22:42;99536.34;;;20.51;71.75
5413;BME280;2729;50.056;8.678;2023-04-22T10:25:21;99526.47;;;21.09;71.62
5413;BME280;2729;50.056;8.678;2023-04-22T10:28:02;99535.63;;;20.61;70.24
5413;BME280;2729;50.056;8.678;2023-04-22T10:30:33;99533.00;;;20.94;72.45
5413;BME280;2729;50.056;8.678;2023-04-22T10:41:15;99523.59;;;21.56;71.47
5413;BME280;2729;50.056;8.678;2023-04-22T10:44:00;99509.28;;;21.68;64.86
5413;BME280;2729;50.056;8.678;2023-04-22T10:48:58;99516.22;;;20.94;67.63
5413;BME280;2729;50.056;8.678;2023-04-22T10:54:03;99511.59;;;21.29;68.27
5413;BME280;2729;50.056;8.678;2023-04-22T10:56:29;99507.03;;;21.09;67.67
5413;BME280;2729;50.056;8.678;2023-04-22T10:58:55;99508.19;;;21.38;66.14
5413;BME280;2729;50.056;8.678;2023-04-22T11:01:21;99502.63;;;21.41;64.88
5413;BME280;2729;50.056;8.678;2023-04-22T11:03:47;99500.06;;;20.74;67.63
5413;BME280;2729;50.056;8.678;2023-04-22T11:06:13;99499.59;;;20.92;65.68
5413;BME280;2729;50.056;8.678;2023-04-22T11:08:48;99494.84;;;21.29;63.31
5413;BME280;2729;50.056;8.678;2023-04-22T11:11:17;99488.47;;;21.09;63.58
5413;BME280;2729;50.056;8.678;2023-04-22T11:13:43;99485.84;;;20.53;66.49
5413;BME280;2729;50.056;8.678;2023-04-22T11:16:10;99477.22;;;21.60;56.71
5413;BME280;2729;50.056;8.678;2023-04-22T11:18:36;99484.63;;;20.79;60.77
5413;BME280;2729;50.056;8.678;2023-04-22T11:21:03;99485.56;;;21.23;57.11
5413;BME280;2729;50.056;8.678;2023-04-22T11:23:31;99479.84;;;21.39;58.73
5413;BME280;2729;50.056;8.678;2023-04-22T11:25:59;99483.41;;;21.06;59.81
5413;BME280;2729;50.056;8.678;2023-04-22T11:28:25;99481.25;;;20.89;62.71
5413;BME280;2729;50.056;8.678;2023-04-22T11:30:51;99477.50;;;20.80;63.54
5413;BME280;2729;50.056;8.678;2023-04-22T11:33:19;99470.56;;;21.33;60.13
5413;BME280;2729;50.056;8.678;2023-04-22T11:35:48;99459.44;;;22.13;52.94
5413;BME280;2729;50.056;8.678;2023-04-22T11:38:14;99476.63;;;21.24;59.59
5413;BME280;2729;50.056;8.678;2023-04-22T11:40:41;99462.06;;;22.34;51.83
5413;BME280;2729;50.056;8.678;2023-04-22T11:43:08;99466.72;;;21.15;59.71
5413;BME280;2729;50.056;8.678;2023-04-22T11:45:36;99465.00;;;20.82;61.96
5413;BME280;2729;50.056;8.678;2023-04-22T11:48:04;99467.28;;;20.64;62.51
5413;BME280;2729;50.056;8.678;2023-04-22T11:50:41;99481.75;;;20.49;63.61
5413;BME280;2729;50.056;8.678;2023-04-22T11:53:18;99468.38;;;21.38;56.82
5413;BME280;2729;50.056;8.678;2023-04-22T11:55:47;99468.41;;;21.16;60.10
5413;BME280;2729;50.056;8.678;2023-04-22T11:58:16;99463.22;;;21.14;60.22
5413;BME280;2729;50.056;8.678;2023-04-22T12:00:44;99464.50;;;20.66;61.79
5413;BME280;2729;50.056;8.678;2023-04-22T12:03:16;99456.75;;;21.92;57.83
5413;BME280;2729;50.056;8.678;2023-04-22T12:06:00;99451.47;;;22.43;56.17
5413;BME280;2729;50.056;8.678;2023-04-22T12:08:31;99454.28;;;22.00;54.80
5413;BME280;2729;50.056;8.678;2023-04-22T12:10:59;99449.09;;;21.57;58.38
5413;BME280;2729;50.056;8.678;2023-04-22T12:13:39;99453.72;;;21.23;59.83
5413;BME280;2729;50.056;8.678;2023-04-22T12:16:17;99457.66;;;21.61;57.92
5413;BME280;2729;50.056;8.678;2023-04-22T12:18:47;99453.25;;;21.07;60.33
5413;BME280;2729;50.056;8.678;2023-04-22T12:21:16;99448.41;;;21.12;59.81
5413;BME280;2729;50.056;8.678;2023-04-22T12:23:51;99439.97;;;21.50;59.15
5413;BME280;2729;50.056;8.678;2023-04-22T12:26:18;99449.06;;;21.36;60.16
5413;BME280;2729;50.056;8.678;2023-04-22T12:28:45;99455.31;;;21.03;60.79
5413;BME280;2729;50.056;8.678;2023-04-22T12:31:15;99441.59;;;21.83;57.74
5413;BME280;2729;50.056;8.678;2023-04-22T12:33:43;99434.00;;;21.99;56.03
5413;BME280;2729;50.056;8.678;2023-04-22T12:36:09;99425.59;;;22.95;48.09
5413;BME280;2729;50.056;8.678;2023-04-22T12:38:36;99434.69;;;22.53;50.69
5413;BME280;2729;50.056;8.678;2023-04-22T12:41:05;99436.53;;;23.02;47.98
5413;BME280;2729;50.056;8.678;2023-04-22T12:43:32;99436.25;;;22.55;49.07
5413;BME280;2729;50.056;8.678;2023-04-22T12:46:01;99439.00;;;22.13;52.57
5413;BME280;2729;50.056;8.678;2023-04-22T12:48:28;99422.88;;;22.36;52.45
5413;BME280;2729;50.056;8.678;2023-04-22T12:50:54;99423.78;;;23.15;50.48
5413;BME280;2729;50.056;8.678;2023-04-22T12:53:21;99431.81;;;23.44;47.00
5413;BME280;2729;50.056;8.678;2023-04-22T12:55:47;99446.41;;;22.10;52.79
5413;BME280;2729;50.056;8.678;2023-04-22T12:58:13;99443.75;;;22.10;52.71
5413;BME280;2729;50.056;8.678;2023-04-22T13:00:39;99426.44;;;23.15;46.40
5413;BME280;2729;50.056;8.678;2023-04-22T13:03:06;99433.75;;;23.13;46.51
5413;BME280;2729;50.056;8.678;2023-04-22T13:05:32;99441.53;;;22.86;47.10
5413;BME280;2729;50.056;8.678;2023-04-22T13:07:58;99444.25;;;22.65;49.82
5413;BME280;2729;50.056;8.678;2023-04-22T13:10:24;99445.81;;;22.37;51.56
5413;BME280;2729;50.056;8.678;2023-04-22T13:12:53;99447.75;;;21.83;54.21
5413;BME280;2729;50.056;8.678;2023-04-22T13:15:19;99445.53;;;22.30;51.57
5413;BME280;2729;50.056;8.678;2023-04-22T13:17:46;99440.69;;;22.85;49.78
5413;BME280;2729;50.056;8.678;2023-04-22T13:20:12;99443.13;;;22.67;50.78
5413;BME280;2729;50.056;8.678;2023-04-22T13:22:39;99455.75;;;22.04;54.13
5413;BME280;2729;50.056;8.678;2023-04-22T13:25:07;99446.66;;;21.86;51.67
5413;BME280;2729;50.056;8.678;2023-04-22T13:27:33;99452.09;;;21.64;54.94
5413;BME280;2729;50.056;8.678;2023-04-22T13:29:59;99444.25;;;21.83;54.58
5413;BME280;2729;50.056;8.678;2023-04-22T13:32:25;99449.63;;;21.08;57.48